Rote, Pennsylvania
Current Conditions -  °F | °C
As of 2:15 AM on Thursday 23 Oct 2014 (Local Time) from KUNV Reporting Station
Overcast Overcast  
Wind Chill: 43°   Ceiling: 1900
Heat Index: 47°   Visibility: 10mi
Dew Point: 41°   Wind: 8mph
Humidity: 79%   Direction: 340°NNW
Pressure: 30"   Gusts: NA
Location:  41.0898°N, 77.4915°W
Report Text: KUNV 230615Z AUTO 34007KT 10SM OVC019 09/05 A3000 RMK AO2 T00850050
Loading
Personal Weather Stations






























Interactive Weather Map
Tropical Storm Tracking
New forecast layout! Learn more

10-Day Weather Forecast

Advertisements
Track Severe Weather on mobile